sensor_id;sensor_type;location;lat;lon;timestamp;P1;durP1;ratioP1;P2;durP2;ratioP2
19727;SDS011;10015;52.530;13.390;2022-11-20T06:30:19;17.17;;;8.37;;
19727;SDS011;10015;52.530;13.390;2022-11-20T06:32:46;17.23;;;8.00;;
19727;SDS011;10015;52.530;13.390;2022-11-20T06:35:16;19.37;;;8.50;;
19727;SDS011;10015;52.530;13.390;2022-11-20T06:37:42;16.63;;;7.87;;
19727;SDS011;10015;52.530;13.390;2022-11-20T06:40:08;16.77;;;7.93;;
19727;SDS011;10015;52.530;13.390;2022-11-20T06:42:35;18.33;;;8.40;;
19727;SDS011;10015;52.530;13.390;2022-11-20T06:45:01;18.03;;;7.87;;
19727;SDS011;10015;52.530;13.390;2022-11-20T06:47:27;20.63;;;8.70;;
19727;SDS011;10015;52.530;13.390;2022-11-20T06:49:53;19.17;;;8.13;;
19727;SDS011;10015;52.530;13.390;2022-11-20T06:52:19;17.93;;;8.50;;
19727;SDS011;10015;52.530;13.390;2022-11-20T06:54:45;20.03;;;8.67;;
19727;SDS011;10015;52.530;13.390;2022-11-20T06:57:11;17.33;;;8.20;;
19727;SDS011;10015;52.530;13.390;2022-11-20T06:59:37;21.50;;;9.13;;
19727;SDS011;10015;52.530;13.390;2022-11-20T07:02:02;16.60;;;8.73;;
19727;SDS011;10015;52.530;13.390;2022-11-20T07:04:28;17.03;;;8.43;;
19727;SDS011;10015;52.530;13.390;2022-11-20T07:06:54;17.60;;;8.43;;
19727;SDS011;10015;52.530;13.390;2022-11-20T07:09:20;19.30;;;9.13;;
19727;SDS011;10015;52.530;13.390;2022-11-20T07:11:46;21.67;;;9.30;;
19727;SDS011;10015;52.530;13.390;2022-11-20T07:14:12;20.23;;;9.07;;
19727;SDS011;10015;52.530;13.390;2022-11-20T07:16:38;22.60;;;8.57;;
19727;SDS011;10015;52.530;13.390;2022-11-20T07:19:04;18.47;;;8.27;;
19727;SDS011;10015;52.530;13.390;2022-11-20T07:21:30;17.20;;;9.00;;
19727;SDS011;10015;52.530;13.390;2022-11-20T07:23:56;18.77;;;8.23;;
19727;SDS011;10015;52.530;13.390;2022-11-20T07:26:22;21.57;;;9.13;;
19727;SDS011;10015;52.530;13.390;2022-11-20T07:28:48;16.73;;;8.90;;
19727;SDS011;10015;52.530;13.390;2022-11-20T07:31:14;19.63;;;8.67;;
19727;SDS011;10015;52.530;13.390;2022-11-20T07:33:41;17.23;;;8.23;;
19727;SDS011;10015;52.530;13.390;2022-11-20T07:36:07;20.27;;;9.20;;
19727;SDS011;10015;52.530;13.390;2022-11-20T07:38:34;19.20;;;8.53;;
19727;SDS011;10015;52.530;13.390;2022-11-20T07:41:00;20.20;;;9.87;;
19727;SDS011;10015;52.530;13.390;2022-11-20T07:43:27;20.30;;;8.20;;
19727;SDS011;10015;52.530;13.390;2022-11-20T07:45:56;20.73;;;9.40;;
19727;SDS011;10015;52.530;13.390;2022-11-20T07:48:23;19.23;;;9.10;;
19727;SDS011;10015;52.530;13.390;2022-11-20T07:50:52;17.63;;;8.50;;
19727;SDS011;10015;52.530;13.390;2022-11-20T07:53:19;19.40;;;8.73;;
19727;SDS011;10015;52.530;13.390;2022-11-20T07:55:47;20.77;;;8.77;;
19727;SDS011;10015;52.530;13.390;2022-11-20T07:58:13;19.23;;;9.30;;
19727;SDS011;10015;52.530;13.390;2022-11-20T08:00:39;21.93;;;9.50;;
19727;SDS011;10015;52.530;13.390;2022-11-20T08:03:06;21.30;;;9.80;;
19727;SDS011;10015;52.530;13.390;2022-11-20T08:05:32;21.83;;;9.80;;
19727;SDS011;10015;52.530;13.390;2022-11-20T08:07:59;17.90;;;8.70;;
19727;SDS011;10015;52.530;13.390;2022-11-20T08:10:25;18.30;;;8.83;;
19727;SDS011;10015;52.530;13.390;2022-11-20T08:12:51;18.90;;;8.40;;
19727;SDS011;10015;52.530;13.390;2022-11-20T08:15:37;18.80;;;9.50;;
19727;SDS011;10015;52.530;13.390;2022-11-20T08:18:05;19.70;;;9.50;;
19727;SDS011;10015;52.530;13.390;2022-11-20T08:20:38;18.77;;;9.50;;
19727;SDS011;10015;52.530;13.390;2022-11-20T08:23:05;19.33;;;9.67;;
19727;SDS011;10015;52.530;13.390;2022-11-20T08:25:33;23.13;;;9.90;;
19727;SDS011;10015;52.530;13.390;2022-11-20T08:28:00;20.63;;;9.73;;
19727;SDS011;10015;52.530;13.390;2022-11-20T08:30:29;20.77;;;9.33;;
19727;SDS011;10015;52.530;13.390;2022-11-20T08:32:59;18.80;;;9.63;;
19727;SDS011;10015;52.530;13.390;2022-11-20T08:35:27;20.93;;;10.03;;
19727;SDS011;10015;52.530;13.390;2022-11-20T08:37:54;18.27;;;9.43;;
19727;SDS011;10015;52.530;13.390;2022-11-20T08:40:20;21.00;;;9.90;;
19727;SDS011;10015;52.530;13.390;2022-11-20T08:42:49;24.40;;;9.50;;
19727;SDS011;10015;52.530;13.390;2022-11-20T08:45:16;20.63;;;9.70;;
19727;SDS011;10015;52.530;13.390;2022-11-20T08:47:44;21.77;;;9.87;;
19727;SDS011;10015;52.530;13.390;2022-11-20T08:50:11;22.47;;;10.73;;
19727;SDS011;10015;52.530;13.390;2022-11-20T08:52:38;23.17;;;10.50;;
19727;SDS011;10015;52.530;13.390;2022-11-20T08:55:05;20.43;;;9.40;;
19727;SDS011;10015;52.530;13.390;2022-11-20T08:57:36;23.80;;;9.73;;
19727;SDS011;10015;52.530;13.390;2022-11-20T09:00:03;25.43;;;9.47;;
19727;SDS011;10015;52.530;13.390;2022-11-20T09:02:31;24.67;;;9.73;;
19727;SDS011;10015;52.530;13.390;2022-11-20T09:04:57;19.50;;;9.77;;
19727;SDS011;10015;52.530;13.390;2022-11-20T09:07:23;22.20;;;9.27;;
19727;SDS011;10015;52.530;13.390;2022-11-20T09:09:49;20.67;;;9.63;;
19727;SDS011;10015;52.530;13.390;2022-11-20T09:12:15;19.70;;;8.90;;
19727;SDS011;10015;52.530;13.390;2022-11-20T09:14:41;23.17;;;9.17;;
19727;SDS011;10015;52.530;13.390;2022-11-20T09:17:09;20.03;;;9.27;;
19727;SDS011;10015;52.530;13.390;2022-11-20T09:19:38;21.23;;;9.43;;
19727;SDS011;10015;52.530;13.390;2022-11-20T09:22:05;23.37;;;9.70;;
19727;SDS011;10015;52.530;13.390;2022-11-20T09:24:31;20.40;;;9.50;;
19727;SDS011;10015;52.530;13.390;2022-11-20T09:26:57;20.57;;;9.83;;
19727;SDS011;10015;52.530;13.390;2022-11-20T09:29:23;23.10;;;10.07;;
19727;SDS011;10015;52.530;13.390;2022-11-20T09:31:49;21.00;;;10.40;;
19727;SDS011;10015;52.530;13.390;2022-11-20T09:34:15;21.40;;;9.60;;
19727;SDS011;10015;52.530;13.390;2022-11-20T09:36:41;21.27;;;9.97;;
19727;SDS011;10015;52.530;13.390;2022-11-20T09:39:07;17.40;;;9.20;;
19727;SDS011;10015;52.530;13.390;2022-11-20T09:41:56;21.03;;;9.87;;
19727;SDS011;10015;52.530;13.390;2022-11-20T09:44:47;18.70;;;8.87;;
19727;SDS011;10015;52.530;13.390;2022-11-20T09:53:09;18.00;;;9.23;;
19727;SDS011;10015;52.530;13.390;2022-11-20T09:55:39;21.07;;;10.33;;
19727;SDS011;10015;52.530;13.390;2022-11-20T09:58:06;16.90;;;9.00;;
19727;SDS011;10015;52.530;13.390;2022-11-20T10:00:34;23.20;;;9.97;;
19727;SDS011;10015;52.530;13.390;2022-11-20T10:05:55;19.83;;;9.57;;
19727;SDS011;10015;52.530;13.390;2022-11-20T10:08:34;17.63;;;8.80;;
19727;SDS011;10015;52.530;13.390;2022-11-20T10:11:13;21.73;;;9.93;;
19727;SDS011;10015;52.530;13.390;2022-11-20T10:14:07;18.73;;;8.80;;
19727;SDS011;10015;52.530;13.390;2022-11-20T10:19:47;18.57;;;9.07;;
19727;SDS011;10015;52.530;13.390;2022-11-20T10:25:37;17.97;;;8.90;;
19727;SDS011;10015;52.530;13.390;2022-11-20T10:30:30;18.00;;;8.50;;
19727;SDS011;10015;52.530;13.390;2022-11-20T10:35:42;18.33;;;8.77;;
19727;SDS011;10015;52.530;13.390;2022-11-20T10:38:17;17.83;;;8.30;;
19727;SDS011;10015;52.530;13.390;2022-11-20T10:40:54;17.90;;;8.37;;
19727;SDS011;10015;52.530;13.390;2022-11-20T10:43:44;19.90;;;8.93;;
19727;SDS011;10015;52.530;13.390;2022-11-20T10:46:12;19.27;;;9.50;;
19727;SDS011;10015;52.530;13.390;2022-11-20T10:48:44;20.60;;;9.70;;
19727;SDS011;10015;52.530;13.390;2022-11-20T10:54:15;19.57;;;9.23;;
19727;SDS011;10015;52.530;13.390;2022-11-20T10:56:47;18.07;;;8.77;;
19727;SDS011;10015;52.530;13.390;2022-11-20T10:59:52;20.67;;;9.30;;
19727;SDS011;10015;52.530;13.390;2022-11-20T11:02:41;20.27;;;9.43;;
19727;SDS011;10015;52.530;13.390;2022-11-20T11:07:50;18.07;;;8.80;;
19727;SDS011;10015;52.530;13.390;2022-11-20T11:13:23;18.13;;;8.97;;
19727;SDS011;10015;52.530;13.390;2022-11-20T11:15:54;19.90;;;9.43;;
19727;SDS011;10015;52.530;13.390;2022-11-20T11:18:38;15.83;;;8.83;;
19727;SDS011;10015;52.530;13.390;2022-11-20T11:21:05;17.67;;;8.87;;
19727;SDS011;10015;52.530;13.390;2022-11-20T11:23:38;17.53;;;8.43;;
19727;SDS011;10015;52.530;13.390;2022-11-20T11:26:06;16.43;;;8.20;;
19727;SDS011;10015;52.530;13.390;2022-11-20T11:28:52;17.20;;;8.43;;
19727;SDS011;10015;52.530;13.390;2022-11-20T11:31:26;17.37;;;8.27;;
19727;SDS011;10015;52.530;13.390;2022-11-20T11:34:04;16.00;;;8.20;;
19727;SDS011;10015;52.530;13.390;2022-11-20T11:36:31;17.90;;;8.60;;
19727;SDS011;10015;52.530;13.390;2022-11-20T11:39:00;15.73;;;7.57;;
19727;SDS011;10015;52.530;13.390;2022-11-20T11:41:33;17.47;;;8.23;;
19727;SDS011;10015;52.530;13.390;2022-11-20T11:44:04;16.10;;;7.67;;
19727;SDS011;10015;52.530;13.390;2022-11-20T11:47:05;13.87;;;7.30;;
19727;SDS011;10015;52.530;13.390;2022-11-20T11:49:36;15.33;;;7.00;;
19727;SDS011;10015;52.530;13.390;2022-11-20T11:52:13;14.83;;;7.67;;
19727;SDS011;10015;52.530;13.390;2022-11-20T11:54:53;18.20;;;8.07;;
19727;SDS011;10015;52.530;13.390;2022-11-20T11:57:23;15.33;;;7.67;;
19727;SDS011;10015;52.530;13.390;2022-11-20T12:00:01;15.53;;;7.53;;
19727;SDS011;10015;52.530;13.390;2022-11-20T12:02:37;16.70;;;7.80;;
19727;SDS011;10015;52.530;13.390;2022-11-20T12:05:21;15.33;;;7.33;;
19727;SDS011;10015;52.530;13.390;2022-11-20T12:07:59;16.30;;;7.30;;
19727;SDS011;10015;52.530;13.390;2022-11-20T12:15:59;18.13;;;7.83;;
19727;SDS011;10015;52.530;13.390;2022-11-20T12:18:27;19.97;;;7.87;;
19727;SDS011;10015;52.530;13.390;2022-11-20T12:21:17;19.70;;;8.00;;
19727;SDS011;10015;52.530;13.390;2022-11-20T12:32:02;13.77;;;6.80;;
19727;SDS011;10015;52.530;13.390;2022-11-20T12:40:31;15.33;;;6.43;;
19727;SDS011;10015;52.530;13.390;2022-11-20T12:51:57;12.97;;;6.33;;
19727;SDS011;10015;52.530;13.390;2022-11-20T17:17:08;11.53;;;5.93;;
19727;SDS011;10015;52.530;13.390;2022-11-20T17:19:34;12.07;;;5.80;;
19727;SDS011;10015;52.530;13.390;2022-11-20T17:22:00;11.53;;;6.07;;
19727;SDS011;10015;52.530;13.390;2022-11-20T17:24:26;12.47;;;6.33;;
19727;SDS011;10015;52.530;13.390;2022-11-20T17:26:53;10.93;;;5.30;;
19727;SDS011;10015;52.530;13.390;2022-11-20T17:29:19;11.87;;;5.73;;
19727;SDS011;10015;52.530;13.390;2022-11-20T17:31:48;12.03;;;6.17;;
19727;SDS011;10015;52.530;13.390;2022-11-20T17:34:15;13.10;;;6.57;;
19727;SDS011;10015;52.530;13.390;2022-11-20T17:36:41;12.77;;;6.50;;
19727;SDS011;10015;52.530;13.390;2022-11-20T17:39:10;14.33;;;6.17;;
19727;SDS011;10015;52.530;13.390;2022-11-20T17:41:36;12.20;;;6.27;;
19727;SDS011;10015;52.530;13.390;2022-11-20T17:44:02;12.73;;;6.23;;
19727;SDS011;10015;52.530;13.390;2022-11-20T17:46:29;10.70;;;5.63;;
19727;SDS011;10015;52.530;13.390;2022-11-20T17:49:00;12.87;;;6.47;;
19727;SDS011;10015;52.530;13.390;2022-11-20T17:51:28;12.27;;;6.17;;
19727;SDS011;10015;52.530;13.390;2022-11-20T17:53:57;12.50;;;6.03;;
19727;SDS011;10015;52.530;13.390;2022-11-20T17:56:25;13.60;;;6.33;;
19727;SDS011;10015;52.530;13.390;2022-11-20T17:59:13;13.93;;;6.23;;
19727;SDS011;10015;52.530;13.390;2022-11-20T18:01:43;13.60;;;6.33;;
19727;SDS011;10015;52.530;13.390;2022-11-20T18:04:09;11.33;;;6.23;;
19727;SDS011;10015;52.530;13.390;2022-11-20T18:06:36;10.00;;;5.63;;
19727;SDS011;10015;52.530;13.390;2022-11-20T18:09:03;9.97;;;5.83;;
19727;SDS011;10015;52.530;13.390;2022-11-20T18:11:31;13.90;;;6.30;;
19727;SDS011;10015;52.530;13.390;2022-11-20T18:13:59;11.07;;;6.13;;
19727;SDS011;10015;52.530;13.390;2022-11-20T18:16:55;13.93;;;6.50;;
19727;SDS011;10015;52.530;13.390;2022-11-20T18:19:23;11.83;;;6.50;;
19727;SDS011;10015;52.530;13.390;2022-11-20T18:21:52;13.50;;;6.53;;
19727;SDS011;10015;52.530;13.390;2022-11-20T18:24:18;13.00;;;6.63;;
19727;SDS011;10015;52.530;13.390;2022-11-20T18:26:44;12.73;;;6.80;;
19727;SDS011;10015;52.530;13.390;2022-11-20T18:29:11;14.97;;;7.43;;
19727;SDS011;10015;52.530;13.390;2022-11-20T18:31:38;13.73;;;6.57;;
19727;SDS011;10015;52.530;13.390;2022-11-20T18:34:06;15.67;;;7.63;;
19727;SDS011;10015;52.530;13.390;2022-11-20T18:36:35;17.43;;;8.37;;
19727;SDS011;10015;52.530;13.390;2022-11-20T18:39:02;20.23;;;7.80;;
19727;SDS011;10015;52.530;13.390;2022-11-20T18:41:29;15.77;;;8.30;;
19727;SDS011;10015;52.530;13.390;2022-11-20T18:44:15;16.07;;;7.70;;
19727;SDS011;10015;52.530;13.390;2022-11-20T18:47:05;18.00;;;7.47;;
19727;SDS011;10015;52.530;13.390;2022-11-20T18:49:33;14.83;;;7.37;;
19727;SDS011;10015;52.530;13.390;2022-11-20T18:52:00;14.63;;;7.20;;
19727;SDS011;10015;52.530;13.390;2022-11-20T18:54:26;16.77;;;7.20;;
19727;SDS011;10015;52.530;13.390;2022-11-20T18:56:52;14.37;;;6.57;;
19727;SDS011;10015;52.530;13.390;2022-11-20T18:59:18;17.70;;;7.33;;
19727;SDS011;10015;52.530;13.390;2022-11-20T19:01:45;14.10;;;7.63;;
19727;SDS011;10015;52.530;13.390;2022-11-20T19:04:14;14.97;;;8.03;;
19727;SDS011;10015;52.530;13.390;2022-11-20T19:06:42;15.17;;;7.10;;
19727;SDS011;10015;52.530;13.390;2022-11-20T19:09:10;16.90;;;7.80;;
19727;SDS011;10015;52.530;13.390;2022-11-20T19:11:38;14.33;;;7.20;;
19727;SDS011;10015;52.530;13.390;2022-11-20T19:14:05;13.67;;;7.33;;
19727;SDS011;10015;52.530;13.390;2022-11-20T19:16:31;17.00;;;7.53;;
19727;SDS011;10015;52.530;13.390;2022-11-20T19:19:02;14.60;;;7.40;;
19727;SDS011;10015;52.530;13.390;2022-11-20T19:21:29;16.27;;;8.40;;
19727;SDS011;10015;52.530;13.390;2022-11-20T19:23:56;15.30;;;8.90;;
19727;SDS011;10015;52.530;13.390;2022-11-20T19:26:23;21.33;;;9.67;;
19727;SDS011;10015;52.530;13.390;2022-11-20T19:28:49;18.07;;;8.53;;
19727;SDS011;10015;52.530;13.390;2022-11-20T19:31:20;15.33;;;8.33;;
19727;SDS011;10015;52.530;13.390;2022-11-20T19:34:07;14.40;;;7.80;;
19727;SDS011;10015;52.530;13.390;2022-11-20T19:36:35;13.53;;;7.63;;
19727;SDS011;10015;52.530;13.390;2022-11-20T19:39:02;15.83;;;8.50;;
19727;SDS011;10015;52.530;13.390;2022-11-20T19:41:31;15.20;;;7.30;;
19727;SDS011;10015;52.530;13.390;2022-11-20T19:43:58;13.67;;;7.23;;
19727;SDS011;10015;52.530;13.390;2022-11-20T19:46:27;14.50;;;7.57;;
19727;SDS011;10015;52.530;13.390;2022-11-20T19:48:55;16.30;;;8.13;;
19727;SDS011;10015;52.530;13.390;2022-11-20T19:51:25;17.80;;;8.37;;
19727;SDS011;10015;52.530;13.390;2022-11-20T19:53:54;14.63;;;7.33;;
19727;SDS011;10015;52.530;13.390;2022-11-20T19:56:22;22.73;;;8.57;;
19727;SDS011;10015;52.530;13.390;2022-11-20T19:58:49;14.37;;;7.03;;
19727;SDS011;10015;52.530;13.390;2022-11-20T20:01:17;12.37;;;7.27;;
19727;SDS011;10015;52.530;13.390;2022-11-20T20:03:45;14.73;;;6.73;;
19727;SDS011;10015;52.530;13.390;2022-11-20T20:06:17;14.53;;;7.67;;
19727;SDS011;10015;52.530;13.390;2022-11-20T20:08:45;16.97;;;7.77;;
19727;SDS011;10015;52.530;13.390;2022-11-20T20:11:12;15.53;;;7.40;;
19727;SDS011;10015;52.530;13.390;2022-11-20T20:13:40;14.77;;;7.40;;
19727;SDS011;10015;52.530;13.390;2022-11-20T20:16:10;17.03;;;7.37;;
19727;SDS011;10015;52.530;13.390;2022-11-20T20:18:40;14.87;;;6.93;;
19727;SDS011;10015;52.530;13.390;2022-11-20T20:21:07;12.60;;;6.60;;
19727;SDS011;10015;52.530;13.390;2022-11-20T20:23:35;15.00;;;6.90;;
19727;SDS011;10015;52.530;13.390;2022-11-20T20:26:02;14.13;;;7.07;;
19727;SDS011;10015;52.530;13.390;2022-11-20T20:28:30;14.20;;;7.30;;
19727;SDS011;10015;52.530;13.390;2022-11-20T20:30:56;16.87;;;7.10;;
19727;SDS011;10015;52.530;13.390;2022-11-20T20:33:22;15.97;;;7.80;;
19727;SDS011;10015;52.530;13.390;2022-11-20T20:35:49;17.93;;;7.87;;
19727;SDS011;10015;52.530;13.390;2022-11-20T20:38:15;15.20;;;7.80;;
19727;SDS011;10015;52.530;13.390;2022-11-20T20:40:45;13.00;;;7.07;;
19727;SDS011;10015;52.530;13.390;2022-11-20T20:43:13;13.03;;;6.90;;
19727;SDS011;10015;52.530;13.390;2022-11-20T20:45:45;11.43;;;6.27;;
19727;SDS011;10015;52.530;13.390;2022-11-20T20:48:14;13.03;;;6.90;;
19727;SDS011;10015;52.530;13.390;2022-11-20T20:50:42;18.80;;;7.90;;
19727;SDS011;10015;52.530;13.390;2022-11-20T20:53:17;13.00;;;7.60;;
19727;SDS011;10015;52.530;13.390;2022-11-20T20:55:51;18.73;;;8.30;;
19727;SDS011;10015;52.530;13.390;2022-11-20T20:58:22;17.27;;;8.40;;
19727;SDS011;10015;52.530;13.390;2022-11-20T21:00:48;33.97;;;14.20;;
19727;SDS011;10015;52.530;13.390;2022-11-20T21:03:15;20.23;;;9.63;;
19727;SDS011;10015;52.530;13.390;2022-11-20T21:05:43;19.97;;;11.50;;
19727;SDS011;10015;52.530;13.390;2022-11-20T21:08:09;21.27;;;9.17;;
19727;SDS011;10015;52.530;13.390;2022-11-20T21:10:49;17.43;;;8.53;;
19727;SDS011;10015;52.530;13.390;2022-11-20T21:13:16;18.30;;;8.90;;
19727;SDS011;10015;52.530;13.390;2022-11-20T21:15:44;16.20;;;8.37;;
19727;SDS011;10015;52.530;13.390;2022-11-20T21:18:13;16.03;;;7.47;;
19727;SDS011;10015;52.530;13.390;2022-11-20T21:20:44;14.77;;;7.73;;
19727;SDS011;10015;52.530;13.390;2022-11-20T21:23:29;15.93;;;7.60;;
19727;SDS011;10015;52.530;13.390;2022-11-20T21:25:55;13.90;;;7.50;;
19727;SDS011;10015;52.530;13.390;2022-11-20T21:28:21;13.97;;;7.23;;
19727;SDS011;10015;52.530;13.390;2022-11-20T21:30:47;15.17;;;7.50;;
19727;SDS011;10015;52.530;13.390;2022-11-20T21:33:14;12.97;;;7.10;;
19727;SDS011;10015;52.530;13.390;2022-11-20T21:35:40;17.10;;;7.77;;
19727;SDS011;10015;52.530;13.390;2022-11-20T21:38:06;15.90;;;7.80;;
19727;SDS011;10015;52.530;13.390;2022-11-20T21:40:32;15.63;;;8.43;;
19727;SDS011;10015;52.530;13.390;2022-11-20T21:42:58;17.50;;;7.90;;
19727;SDS011;10015;52.530;13.390;2022-11-20T21:45:24;15.20;;;7.67;;
19727;SDS011;10015;52.530;13.390;2022-11-20T21:47:50;14.60;;;8.10;;
19727;SDS011;10015;52.530;13.390;2022-11-20T21:50:17;13.20;;;7.30;;
19727;SDS011;10015;52.530;13.390;2022-11-20T21:52:43;15.83;;;6.97;;
19727;SDS011;10015;52.530;13.390;2022-11-20T21:55:10;13.50;;;7.63;;
19727;SDS011;10015;52.530;13.390;2022-11-20T21:57:36;16.47;;;7.10;;
19727;SDS011;10015;52.530;13.390;2022-11-20T22:00:03;15.50;;;7.60;;
19727;SDS011;10015;52.530;13.390;2022-11-20T22:02:37;13.80;;;7.13;;
19727;SDS011;10015;52.530;13.390;2022-11-20T22:05:05;17.13;;;7.57;;
19727;SDS011;10015;52.530;13.390;2022-11-20T22:07:32;15.83;;;7.47;;
19727;SDS011;10015;52.530;13.390;2022-11-20T22:09:58;12.23;;;7.10;;
19727;SDS011;10015;52.530;13.390;2022-11-20T22:12:23;14.37;;;6.80;;
19727;SDS011;10015;52.530;13.390;2022-11-20T22:14:49;16.27;;;7.07;;
19727;SDS011;10015;52.530;13.390;2022-11-20T22:17:15;14.73;;;7.40;;
19727;SDS011;10015;52.530;13.390;2022-11-20T22:20:01;15.77;;;7.50;;
19727;SDS011;10015;52.530;13.390;2022-11-20T22:22:27;15.83;;;7.20;;
19727;SDS011;10015;52.530;13.390;2022-11-20T22:24:53;14.10;;;7.30;;
19727;SDS011;10015;52.530;13.390;2022-11-20T22:27:19;16.37;;;8.17;;
19727;SDS011;10015;52.530;13.390;2022-11-20T22:29:45;17.00;;;8.07;;
19727;SDS011;10015;52.530;13.390;2022-11-20T22:32:11;15.73;;;7.80;;
19727;SDS011;10015;52.530;13.390;2022-11-20T22:34:37;16.80;;;7.57;;
19727;SDS011;10015;52.530;13.390;2022-11-20T22:37:03;15.30;;;7.47;;
19727;SDS011;10015;52.530;13.390;2022-11-20T22:39:29;15.03;;;8.20;;
19727;SDS011;10015;52.530;13.390;2022-11-20T22:41:55;13.33;;;7.37;;
19727;SDS011;10015;52.530;13.390;2022-11-20T22:44:21;15.77;;;7.70;;
19727;SDS011;10015;52.530;13.390;2022-11-20T22:46:47;18.40;;;7.97;;
19727;SDS011;10015;52.530;13.390;2022-11-20T22:49:13;14.63;;;7.70;;
19727;SDS011;10015;52.530;13.390;2022-11-20T22:51:39;15.00;;;7.03;;
19727;SDS011;10015;52.530;13.390;2022-11-20T22:54:06;15.93;;;7.10;;
19727;SDS011;10015;52.530;13.390;2022-11-20T22:56:34;12.97;;;6.87;;
19727;SDS011;10015;52.530;13.390;2022-11-20T22:59:00;15.97;;;8.23;;
19727;SDS011;10015;52.530;13.390;2022-11-20T23:01:27;15.60;;;8.40;;
19727;SDS011;10015;52.530;13.390;2022-11-20T23:04:01;16.97;;;7.63;;
19727;SDS011;10015;52.530;13.390;2022-11-20T23:06:29;17.00;;;7.63;;
19727;SDS011;10015;52.530;13.390;2022-11-20T23:08:58;18.27;;;7.67;;
19727;SDS011;10015;52.530;13.390;2022-11-20T23:11:25;16.83;;;8.17;;
19727;SDS011;10015;52.530;13.390;2022-11-20T23:13:53;22.63;;;9.10;;
19727;SDS011;10015;52.530;13.390;2022-11-20T23:16:22;20.93;;;8.73;;
19727;SDS011;10015;52.530;13.390;2022-11-20T23:18:59;16.57;;;7.50;;
19727;SDS011;10015;52.530;13.390;2022-11-20T23:21:28;15.63;;;7.83;;
19727;SDS011;10015;52.530;13.390;2022-11-20T23:23:55;16.13;;;7.80;;
19727;SDS011;10015;52.530;13.390;2022-11-20T23:26:30;17.67;;;8.47;;
19727;SDS011;10015;52.530;13.390;2022-11-20T23:28:57;20.00;;;7.93;;
19727;SDS011;10015;52.530;13.390;2022-11-20T23:31:25;18.37;;;8.30;;
19727;SDS011;10015;52.530;13.390;2022-11-20T23:33:53;17.93;;;7.97;;
19727;SDS011;10015;52.530;13.390;2022-11-20T23:36:19;19.80;;;9.07;;
19727;SDS011;10015;52.530;13.390;2022-11-20T23:38:45;18.80;;;9.10;;
19727;SDS011;10015;52.530;13.390;2022-11-20T23:41:11;19.13;;;9.10;;
19727;SDS011;10015;52.530;13.390;2022-11-20T23:43:38;22.80;;;10.30;;
19727;SDS011;10015;52.530;13.390;2022-11-20T23:46:05;22.30;;;10.47;;
19727;SDS011;10015;52.530;13.390;2022-11-20T23:48:33;24.00;;;10.50;;
19727;SDS011;10015;52.530;13.390;2022-11-20T23:51:00;23.03;;;9.83;;
19727;SDS011;10015;52.530;13.390;2022-11-20T23:53:27;25.33;;;11.50;;
19727;SDS011;10015;52.530;13.390;2022-11-20T23:55:55;21.83;;;10.00;;
19727;SDS011;10015;52.530;13.390;2022-11-20T23:58:23;26.30;;;11.33;;
